Time;durP1;ratioP1;P1;durP2;ratioP2;P2;SDS_P1;SDS_P2;PMS_P1;PMS_P2;Temp;Humidity;BMP_temperature;BMP_pressure;BME280_temperature;BME280_humidity;BME280_pressure;Samples;Min_cycle;Max_cycle;Signal;HPM_P1;HPM_P2
2022/07/05 00:01:16;;;;;;;10.88;6.20;;;;;;;;;;5109417;28;20494;-75
2022/07/05 00:03:46;;;;;;;14.70;6.35;;;;;;;;;;5110089;28;20040;-72
2022/07/05 00:06:16;;;;;;;14.45;6.68;;;;;;;;;;5109426;28;20062;-72
2022/07/05 00:08:46;;;;;;;11.30;5.90;;;;;;;;;;5109609;28;20055;-73
2022/07/05 00:11:16;;;;;;;18.00;7.07;;;;;;;;;;5091722;28;20501;-74
2022/07/05 00:13:46;;;;;;;12.18;6.18;;;;;;;;;;5108028;28;20051;-72
2022/07/05 00:16:16;;;;;;;11.70;6.57;;;;;;;;;;5109310;28;20054;-74
2022/07/05 00:18:45;;;;;;;14.82;6.50;;;;;;;;;;5107800;28;20055;-73
2022/07/05 00:21:15;;;;;;;12.40;6.15;;;;;;;;;;5109219;28;20822;-73
2022/07/05 00:23:46;;;;;;;10.75;6.03;;;;;;;;;;5090447;28;20048;-73
2022/07/05 00:26:16;;;;;;;11.27;5.82;;;;;;;;;;5109213;28;20043;-73
2022/07/05 00:28:45;;;;;;;17.20;7.82;;;;;;;;;;5109010;28;20051;-74
2022/07/05 00:31:15;;;;;;;18.80;8.32;;;;;;;;;;5109105;28;20486;-73
2022/07/05 00:33:45;;;;;;;18.88;9.60;;;;;;;;;;5089585;28;20048;-72
2022/07/05 00:36:15;;;;;;;20.73;8.30;;;;;;;;;;5108621;28;20528;-72
2022/07/05 00:38:45;;;;;;;24.70;9.15;;;;;;;;;;5108457;28;20541;-72
2022/07/05 00:41:15;;;;;;;19.40;8.95;;;;;;;;;;5091219;28;20156;-73
2022/07/05 00:44:29;;;;;;;16.38;7.40;;;;;;;;;;5109019;28;20040;-71
2022/07/05 00:46:59;;;;;;;30.73;12.20;;;;;;;;;;5005376;28;20054;-74
2022/07/05 00:49:30;;;;;;;26.23;11.80;;;;;;;;;;5081953;28;20056;-72
2022/07/05 00:52:00;;;;;;;22.58;9.60;;;;;;;;;;5090673;28;20062;-72
2022/07/05 00:54:49;;;;;;;22.08;10.32;;;;;;;;;;5088895;28;20414;-72
2022/07/05 00:57:22;;;;;;;23.83;11.13;;;;;;;;;;5108448;28;20402;-72
2022/07/05 00:59:52;;;;;;;26.75;10.60;;;;;;;;;;5089144;28;20055;-72
2022/07/05 01:02:23;;;;;;;31.48;11.90;;;;;;;;;;5089684;28;20058;-72
2022/07/05 01:04:53;;;;;;;27.85;11.35;;;;;;;;;;5107732;28;20056;-72
2022/07/05 01:07:24;;;;;;;28.15;10.57;;;;;;;;;;5089736;28;20521;-72
2022/07/05 01:09:54;;;;;;;23.10;10.48;;;;;;;;;;5089676;28;20520;-72
2022/07/05 01:12:25;;;;;;;26.73;10.85;;;;;;;;;;5108151;28;20054;-75
2022/07/05 01:14:56;;;;;;;23.13;10.30;;;;;;;;;;5107877;28;20051;-73
2022/07/05 01:17:27;;;;;;;23.30;10.18;;;;;;;;;;5107595;28;20062;-73
2022/07/05 01:19:57;;;;;;;27.45;11.38;;;;;;;;;;5089504;28;20067;-72
2022/07/05 01:22:27;;;;;;;37.03;13.45;;;;;;;;;;5107939;28;20062;-72
2022/07/05 01:24:57;;;;;;;33.92;14.93;;;;;;;;;;5108088;28;20058;-72
2022/07/05 01:27:27;;;;;;;34.22;14.55;;;;;;;;;;5108224;28;20055;-73
2022/07/05 01:29:57;;;;;;;38.28;15.18;;;;;;;;;;5088745;28;20055;-73
2022/07/05 01:32:28;;;;;;;37.78;15.27;;;;;;;;;;5089878;28;20046;-74
2022/07/05 01:34:58;;;;;;;42.72;15.63;;;;;;;;;;5108197;28;20520;-75
2022/07/05 01:37:30;;;;;;;36.65;14.77;;;;;;;;;;5107686;28;20051;-73
2022/07/05 01:40:03;;;;;;;41.22;15.35;;;;;;;;;;5107627;28;20532;-74
2022/07/05 01:42:33;;;;;;;39.08;15.38;;;;;;;;;;5107460;28;20077;-72
2022/07/05 01:45:04;;;;;;;47.58;16.90;;;;;;;;;;5107602;28;20055;-73
2022/07/05 01:47:48;;;;;;;35.20;14.05;;;;;;;;;;5106947;28;20055;-72
2022/07/05 01:50:22;;;;;;;35.88;14.52;;;;;;;;;;5107798;28;20056;-74
2022/07/05 01:52:52;;;;;;;29.63;13.43;;;;;;;;;;5106961;28;20051;-72
2022/07/05 01:55:23;;;;;;;26.10;11.98;;;;;;;;;;5086440;28;20058;-73
2022/07/05 01:57:54;;;;;;;34.80;13.32;;;;;;;;;;5070380;28;20058;-73
2022/07/05 02:00:23;;;;;;;34.35;13.77;;;;;;;;;;5086955;28;20062;-72
2022/07/05 02:02:55;;;;;;;33.17;13.63;;;;;;;;;;5086275;28;20055;-72
2022/07/05 02:05:28;;;;;;;38.88;14.15;;;;;;;;;;5086636;28;20047;-73
2022/07/05 02:07:58;;;;;;;28.50;12.13;;;;;;;;;;5105778;28;20513;-78
2022/07/05 02:10:28;;;;;;;32.17;13.68;;;;;;;;;;5086934;28;20058;-73
2022/07/05 02:12:58;;;;;;;32.35;12.93;;;;;;;;;;5087727;28;20056;-73
2022/07/05 02:15:34;;;;;;;28.25;12.52;;;;;;;;;;5088200;28;20055;-73
2022/07/05 02:18:07;;;;;;;27.33;12.32;;;;;;;;;;5088325;28;20572;-72
2022/07/05 02:20:41;;;;;;;35.70;12.45;;;;;;;;;;5088242;28;20055;-74
2022/07/05 02:23:12;;;;;;;28.90;13.75;;;;;;;;;;5088993;28;21098;-74
2022/07/05 02:25:43;;;;;;;30.05;13.05;;;;;;;;;;5088325;28;20044;-73
2022/07/05 02:28:16;;;;;;;32.10;13.63;;;;;;;;;;5088388;28;20051;-73
2022/07/05 02:30:49;;;;;;;31.10;13.88;;;;;;;;;;5088432;28;20056;-73
2022/07/05 02:33:20;;;;;;;37.08;13.43;;;;;;;;;;5088027;28;20078;-73
2022/07/05 02:35:51;;;;;;;26.52;12.18;;;;;;;;;;5087829;28;20513;-73
2022/07/05 02:38:21;;;;;;;30.80;13.43;;;;;;;;;;5088005;28;20054;-74
2022/07/05 02:40:51;;;;;;;23.85;10.98;;;;;;;;;;5087893;28;20052;-73
2022/07/05 02:43:20;;;;;;;36.28;12.75;;;;;;;;;;5107169;28;20051;-73
2022/07/05 02:45:50;;;;;;;31.17;12.27;;;;;;;;;;5087623;28;20521;-73
2022/07/05 02:48:20;;;;;;;23.75;10.65;;;;;;;;;;5088252;28;20056;-74
2022/07/05 02:50:50;;;;;;;26.38;10.85;;;;;;;;;;5088285;28;20043;-74
2022/07/05 02:53:20;;;;;;;21.83;10.77;;;;;;;;;;5087850;28;20059;-74
2022/07/05 02:55:51;;;;;;;21.80;9.98;;;;;;;;;;5088534;28;20544;-73
2022/07/05 02:58:21;;;;;;;24.00;10.50;;;;;;;;;;5087509;28;20084;-73
2022/07/05 03:00:53;;;;;;;24.48;11.00;;;;;;;;;;5087692;28;20414;-73
2022/07/05 03:03:25;;;;;;;27.55;11.07;;;;;;;;;;5087963;28;20043;-73
2022/07/05 03:05:56;;;;;;;25.60;11.18;;;;;;;;;;5087758;28;20059;-73
2022/07/05 03:08:27;;;;;;;23.88;11.10;;;;;;;;;;5087955;28;20058;-73
2022/07/05 03:10:58;;;;;;;24.38;10.60;;;;;;;;;;5087658;28;20052;-74
2022/07/05 03:13:29;;;;;;;30.38;9.93;;;;;;;;;;5088266;28;20409;-73
2022/07/05 03:15:59;;;;;;;27.77;10.77;;;;;;;;;;5087981;28;20044;-73
2022/07/05 03:18:29;;;;;;;19.90;9.07;;;;;;;;;;5087461;28;20055;-73
2022/07/05 03:20:59;;;;;;;18.75;9.45;;;;;;;;;;5087754;28;20831;-73
2022/07/05 03:23:33;;;;;;;25.00;9.52;;;;;;;;;;5091417;28;20421;-73
2022/07/05 03:26:03;;;;;;;23.70;9.55;;;;;;;;;;5091629;28;20536;-72
2022/07/05 03:28:33;;;;;;;26.48;9.80;;;;;;;;;;5075641;28;20066;-73
2022/07/05 03:31:02;;;;;;;21.38;10.35;;;;;;;;;;5110787;28;20043;-73
2022/07/05 03:33:38;;;;;;;23.35;10.35;;;;;;;;;;5091679;28;20055;-72
2022/07/05 03:36:10;;;;;;;21.17;11.15;;;;;;;;;;5090923;28;20052;-74
2022/07/05 03:38:42;;;;;;;20.60;9.75;;;;;;;;;;5092024;28;20070;-72
2022/07/05 03:41:13;;;;;;;22.42;10.02;;;;;;;;;;5091408;28;20063;-73
2022/07/05 03:43:43;;;;;;;25.65;9.52;;;;;;;;;;5091109;28;20047;-73
2022/07/05 03:46:13;;;;;;;24.58;10.20;;;;;;;;;;5091194;28;20051;-73
2022/07/05 03:48:43;;;;;;;24.00;11.20;;;;;;;;;;5091015;28;20054;-73
2022/07/05 03:51:17;;;;;;;18.38;9.70;;;;;;;;;;5075048;28;20062;-73
2022/07/05 03:53:48;;;;;;;20.55;9.93;;;;;;;;;;5091441;28;20849;-73
2022/07/05 03:56:19;;;;;;;20.13;9.98;;;;;;;;;;5110138;28;20440;-73
2022/07/05 03:58:52;;;;;;;19.13;10.25;;;;;;;;;;5091082;28;20051;-73
2022/07/05 04:01:22;;;;;;;21.10;9.32;;;;;;;;;;5091170;28;20055;-73
2022/07/05 04:03:53;;;;;;;19.63;8.95;;;;;;;;;;5090845;28;20054;-73
2022/07/05 04:06:24;;;;;;;22.13;9.60;;;;;;;;;;5090512;28;20612;-73
2022/07/05 04:08:56;;;;;;;22.13;9.18;;;;;;;;;;5092036;28;20418;-73
2022/07/05 04:11:26;;;;;;;21.92;9.80;;;;;;;;;;5090538;28;20050;-72
2022/07/05 04:13:56;;;;;;;25.23;9.50;;;;;;;;;;5090675;28;20078;-73
2022/07/05 04:16:26;;;;;;;21.20;9.73;;;;;;;;;;5090506;28;20078;-73
2022/07/05 04:18:56;;;;;;;20.98;9.73;;;;;;;;;;5090853;28;20063;-73
2022/07/05 04:21:27;;;;;;;22.35;10.70;;;;;;;;;;5090471;28;20052;-72
2022/07/05 04:23:58;;;;;;;26.38;10.48;;;;;;;;;;5090124;28;20078;-73
2022/07/05 04:26:27;;;;;;;28.05;11.05;;;;;;;;;;5090558;28;20075;-73
2022/07/05 04:28:57;;;;;;;28.25;11.48;;;;;;;;;;5090460;28;20426;-72
2022/07/05 04:31:32;;;;;;;29.08;10.30;;;;;;;;;;5090574;28;20051;-72
2022/07/05 04:34:03;;;;;;;22.38;11.50;;;;;;;;;;5089467;28;20052;-72
2022/07/05 04:36:40;;;;;;;30.20;11.45;;;;;;;;;;5109135;28;20894;-73
2022/07/05 04:39:10;;;;;;;28.35;11.57;;;;;;;;;;5090000;28;20050;-72
2022/07/05 04:41:48;;;;;;;27.20;10.90;;;;;;;;;;5089727;28;20059;-73
2022/07/05 04:44:18;;;;;;;27.75;11.00;;;;;;;;;;5090440;28;20052;-73
2022/07/05 04:46:48;;;;;;;27.52;11.02;;;;;;;;;;5108580;28;20044;-73
2022/07/05 04:49:19;;;;;;;21.50;10.65;;;;;;;;;;5089931;28;20062;-73
2022/07/05 04:51:50;;;;;;;19.67;9.43;;;;;;;;;;5090795;28;20524;-73
2022/07/05 04:54:21;;;;;;;22.83;9.68;;;;;;;;;;5089763;28;20048;-73
2022/07/05 04:56:50;;;;;;;18.75;9.82;;;;;;;;;;5108565;28;20528;-73
2022/07/05 04:59:20;;;;;;;;;;;;;;;;;;5089957;28;20048;-73
2022/07/05 05:01:54;;;;;;;21.65;9.77;;;;;;;;;;5108867;28;19924;-73
2022/07/05 05:04:24;;;;;;;21.15;9.80;;;;;;;;;;5108948;28;20039;-72
2022/07/05 05:06:54;;;;;;;21.65;10.43;;;;;;;;;;5086518;28;20048;-72
2022/07/05 05:09:24;;;;;;;28.50;10.85;;;;;;;;;;5087831;28;20094;-73
2022/07/05 05:11:53;;;;;;;25.83;10.50;;;;;;;;;;5087981;28;20040;-73
2022/07/05 05:14:24;;;;;;;19.77;9.65;;;;;;;;;;5088768;28;20044;-73
2022/07/05 05:16:54;;;;;;;19.83;9.52;;;;;;;;;;5088294;28;20036;-72
2022/07/05 05:19:24;;;;;;;16.90;8.48;;;;;;;;;;5088087;28;20059;-72
2022/07/05 05:21:54;;;;;;;23.35;8.43;;;;;;;;;;5087241;28;20048;-73
2022/07/05 05:24:24;;;;;;;19.45;8.95;;;;;;;;;;5087141;28;20051;-73
2022/07/05 05:26:53;;;;;;;20.40;10.18;;;;;;;;;;5087724;28;20048;-73
2022/07/05 05:29:23;;;;;;;20.88;7.57;;;;;;;;;;5087844;28;20062;-73
2022/07/05 05:31:52;;;;;;;;;;;;;;;;;;5088089;28;20051;-73
2022/07/05 05:34:22;;;;;;;14.35;7.40;;;;;;;;;;5086432;28;19974;-73
2022/07/05 05:36:52;;;;;;;17.15;7.80;;;;;;;;;;5087685;28;20055;-73
2022/07/05 05:39:21;;;;;;;;;;;;;;;;;;5088895;28;20036;-72
2022/07/05 05:41:51;;;;;;;21.38;7.40;;;;;;;;;;5087567;28;19920;-73
2022/07/05 05:44:21;;;;;;;23.42;8.57;;;;;;;;;;5086943;28;20047;-73
2022/07/05 05:46:51;;;;;;;16.90;8.25;;;;;;;;;;5086913;28;20554;-73
2022/07/05 05:49:21;;;;;;;16.27;8.07;;;;;;;;;;5085865;28;20059;-72
2022/07/05 05:51:52;;;;;;;22.20;8.63;;;;;;;;;;5102189;28;20528;-73
2022/07/05 05:54:21;;;;;;;16.35;7.65;;;;;;;;;;5087203;28;20059;-73
2022/07/05 05:56:51;;;;;;;22.17;8.15;;;;;;;;;;5086782;28;20056;-73
2022/07/05 05:59:20;;;;;;;;;;;;;;;;;;5087458;28;20048;-73
2022/07/05 06:01:50;;;;;;;17.88;8.05;;;;;;;;;;5086694;28;19931;-73
2022/07/05 06:04:20;;;;;;;19.05;8.25;;;;;;;;;;5086332;28;20047;-73
2022/07/05 06:06:50;;;;;;;19.30;7.95;;;;;;;;;;5097136;28;20426;-73
2022/07/05 06:09:20;;;;;;;21.25;9.02;;;;;;;;;;5107307;28;20044;-73
2022/07/05 06:11:50;;;;;;;21.17;8.05;;;;;;;;;;5089451;28;20066;-73
2022/07/05 06:14:19;;;;;;;;;;;;;;;;;;5107572;28;20044;-73
2022/07/05 06:16:49;;;;;;;16.40;7.32;;;;;;;;;;5107390;28;19923;-73
2022/07/05 06:19:19;;;;;;;17.83;7.13;;;;;;;;;;5107676;28;20051;-72
2022/07/05 06:21:48;;;;;;;10.98;5.90;;;;;;;;;;5107236;28;20486;-73
2022/07/05 06:24:18;;;;;;;;;;;;;;;;;;5107869;28;20044;-73
2022/07/05 06:26:47;;;;;;;12.00;6.45;;;;;;;;;;5088056;28;20307;-73
2022/07/05 06:29:17;;;;;;;;;;;;;;;;;;5090270;28;20071;-73
2022/07/05 06:31:46;;;;;;;18.30;7.00;;;;;;;;;;5107209;28;19923;-72
2022/07/05 06:34:17;;;;;;;12.40;6.70;;;;;;;;;;5107095;28;20591;-73
2022/07/05 06:36:46;;;;;;;;;;;;;;;;;;5107331;28;20419;-73
2022/07/05 06:39:16;;;;;;;15.38;6.72;;;;;;;;;;5106677;28;19924;-73
2022/07/05 06:41:46;;;;;;;14.57;6.70;;;;;;;;;;5107228;28;20046;-72
2022/07/05 06:44:15;;;;;;;;;;;;;;;;;;5107626;28;20058;-73
2022/07/05 06:47:04;;;;;;;12.18;6.05;;;;;;;;;;5106787;28;19931;-73
2022/07/05 06:49:34;;;;;;;14.43;7.18;;;;;;;;;;5107877;28;20428;-73
2022/07/05 06:52:04;;;;;;;14.18;6.93;;;;;;;;;;5107348;28;20486;-73
2022/07/05 06:54:34;;;;;;;16.67;6.78;;;;;;;;;;5107607;28;20047;-73
2022/07/05 06:57:23;;;;;;;10.13;6.03;;;;;;;;;;5109633;28;20047;-73
2022/07/05 07:00:01;;;;;;;13.05;6.07;;;;;;;;;;5110854;28;20055;-73
2022/07/05 07:02:32;;;;;;;13.15;7.00;;;;;;;;;;5111167;28;20047;-72
2022/07/05 07:05:02;;;;;;;14.07;6.40;;;;;;;;;;5110820;28;20495;-73
2022/07/05 07:10:26;;;;;;;16.30;6.82;;;;;;;;;;5110601;28;20039;-73
2022/07/05 07:12:58;;;;;;;12.57;5.63;;;;;;;;;;5110954;28;20047;-72
2022/07/05 07:15:30;;;;;;;11.48;5.95;;;;;;;;;;5091356;28;20070;-74
2022/07/05 07:18:02;;;;;;;12.07;5.90;;;;;;;;;;5110450;28;20032;-73
2022/07/05 07:20:31;;;;;;;12.10;5.75;;;;;;;;;;5111088;28;20049;-72
2022/07/05 07:23:01;;;;;;;10.32;5.30;;;;;;;;;;5109873;28;20052;-72
2022/07/05 07:25:31;;;;;;;11.00;5.97;;;;;;;;;;5110426;28;20039;-72
2022/07/05 07:28:04;;;;;;;9.20;5.47;;;;;;;;;;5110645;28;20043;-72
2022/07/05 07:30:35;;;;;;;8.70;5.00;;;;;;;;;;5110653;28;20044;-72
2022/07/05 07:33:06;;;;;;;10.98;5.50;;;;;;;;;;5110212;28;20035;-72
2022/07/05 07:35:50;;;;;;;11.18;5.55;;;;;;;;;;5110208;28;20051;-73
2022/07/05 07:38:20;;;;;;;11.13;5.22;;;;;;;;;;5092218;28;20051;-73
2022/07/05 07:40:50;;;;;;;11.75;5.82;;;;;;;;;;5110509;28;20052;-72
2022/07/05 07:43:20;;;;;;;11.30;4.97;;;;;;;;;;5110494;28;20052;-73
2022/07/05 07:45:49;;;;;;;;;;;;;;;;;;5111234;28;20047;-73
2022/07/05 07:48:20;;;;;;;11.70;5.35;;;;;;;;;;5109983;28;19920;-72
2022/07/05 07:50:50;;;;;;;11.02;4.78;;;;;;;;;;5110538;28;20047;-72
2022/07/05 07:53:19;;;;;;;7.05;4.47;;;;;;;;;;5110394;28;20441;-72
2022/07/05 07:55:49;;;;;;;;;;;;;;;;;;5110663;28;20048;-72
2022/07/05 07:58:19;;;;;;;9.07;5.15;;;;;;;;;;5110344;28;19923;-73
2022/07/05 08:00:49;;;;;;;8.43;4.53;;;;;;;;;;5109915;28;20051;-72
2022/07/05 08:03:19;;;;;;;8.68;5.40;;;;;;;;;;5109717;28;20058;-73
2022/07/05 08:05:49;;;;;;;6.47;4.13;;;;;;;;;;5109778;28;20039;-72
2022/07/05 08:08:18;;;;;;;;;;;;;;;;;;5110010;28;20384;-72
2022/07/05 08:10:47;;;;;;;12.52;4.80;;;;;;;;;;5110087;28;19923;-73
2022/07/05 08:13:18;;;;;;;8.80;4.78;;;;;;;;;;5090854;28;20062;-72
2022/07/05 08:15:48;;;;;;;7.00;4.63;;;;;;;;;;5109569;28;20054;-72
2022/07/05 08:23:55;;;;;;;7.07;4.45;;;;;;;;;;5109780;28;20048;-72
2022/07/05 08:26:24;;;;;;;10.10;4.82;;;;;;;;;;5109001;28;20055;-72
2022/07/05 08:28:54;;;;;;;;;;;;;;;;;;5109842;28;20051;-72
2022/07/05 08:31:38;;;;;;;8.23;4.60;;;;;;;;;;5109286;28;19927;-72
2022/07/05 08:34:08;;;;;;;9.20;4.60;;;;;;;;;;5109367;28;20051;-72
2022/07/05 08:36:41;;;;;;;9.30;4.53;;;;;;;;;;5109295;28;20485;-72
2022/07/05 08:39:11;;;;;;;13.88;4.97;;;;;;;;;;5090426;28;20074;-73
2022/07/05 08:41:43;;;;;;;8.38;4.97;;;;;;;;;;5108996;28;20055;-72
2022/07/05 08:44:16;;;;;;;8.45;4.70;;;;;;;;;;5109071;28;20048;-73
2022/07/05 08:46:50;;;;;;;11.23;4.82;;;;;;;;;;5108523;28;20055;-74
2022/07/05 08:49:25;;;;;;;11.38;5.40;;;;;;;;;;5109258;28;20059;-72
2022/07/05 08:51:56;;;;;;;11.38;5.35;;;;;;;;;;5109312;28;20052;-72
2022/07/05 08:54:26;;;;;;;9.05;5.07;;;;;;;;;;5108676;28;20047;-72
2022/07/05 08:56:56;;;;;;;10.68;5.18;;;;;;;;;;5108753;28;20399;-73
2022/07/05 08:59:42;;;;;;;9.63;4.70;;;;;;;;;;5109005;28;20052;-73
2022/07/05 09:02:16;;;;;;;10.30;5.32;;;;;;;;;;5108694;28;20055;-72
2022/07/05 09:04:49;;;;;;;13.27;5.18;;;;;;;;;;5108452;28;20406;-72
2022/07/05 09:07:22;;;;;;;8.90;4.80;;;;;;;;;;5089650;28;20172;-72
2022/07/05 09:09:53;;;;;;;12.38;5.47;;;;;;;;;;5108436;28;20510;-72
2022/07/05 09:12:23;;;;;;;7.63;4.55;;;;;;;;;;5108350;28;20066;-72
2022/07/05 09:14:56;;;;;;;9.75;5.38;;;;;;;;;;5108354;28;20334;-72
2022/07/05 09:17:27;;;;;;;10.57;5.45;;;;;;;;;;5108427;28;20043;-72
2022/07/05 09:20:12;;;;;;;7.47;4.75;;;;;;;;;;5108512;28;20399;-72
2022/07/05 09:22:52;;;;;;;10.20;4.95;;;;;;;;;;5108699;28;20043;-72
2022/07/05 09:25:28;;;;;;;9.10;5.43;;;;;;;;;;5106747;28;20078;-72
2022/07/05 09:27:59;;;;;;;6.43;4.35;;;;;;;;;;5108098;28;20039;-73
2022/07/05 09:30:30;;;;;;;11.32;5.53;;;;;;;;;;5108438;28;20403;-72
2022/07/05 09:33:15;;;;;;;8.40;5.15;;;;;;;;;;5108241;28;20039;-74
2022/07/05 09:35:57;;;;;;;10.68;5.00;;;;;;;;;;5090262;28;20066;-72
2022/07/05 09:38:29;;;;;;;10.02;5.53;;;;;;;;;;5107924;28;20386;-72
2022/07/05 09:41:02;;;;;;;8.77;5.13;;;;;;;;;;5107429;28;20043;-73
2022/07/05 09:43:32;;;;;;;10.18;4.75;;;;;;;;;;5108013;28;20055;-73
2022/07/05 09:46:02;;;;;;;;;;;;;;;;;;5108470;28;20063;-73
2022/07/05 09:48:34;;;;;;;11.93;4.78;;;;;;;;;;5107901;28;20252;-72
2022/07/05 09:51:11;;;;;;;9.45;4.88;;;;;;;;;;5107600;28;20597;-72
2022/07/05 09:54:02;;;;;;;9.30;5.03;;;;;;;;;;5107307;28;20435;-72
2022/07/05 09:56:45;;;;;;;10.68;5.13;;;;;;;;;;5107770;28;20058;-72
2022/07/05 09:59:19;;;;;;;8.23;4.88;;;;;;;;;;5107026;28;20407;-72
2022/07/05 10:01:51;;;;;;;10.93;4.28;;;;;;;;;;5107533;28;20052;-72
2022/07/05 10:04:22;;;;;;;11.35;4.47;;;;;;;;;;5106911;28;20047;-73
2022/07/05 10:06:52;;;;;;;10.07;4.47;;;;;;;;;;5107288;28;20056;-73
2022/07/05 10:09:22;;;;;;;7.10;4.32;;;;;;;;;;5088098;28;20074;-72
2022/07/05 10:11:52;;;;;;;12.20;4.80;;;;;;;;;;5107427;28;20044;-71
2022/07/05 10:14:24;;;;;;;8.35;4.45;;;;;;;;;;5087880;28;20047;-73
2022/07/05 10:17:01;;;;;;;10.25;5.07;;;;;;;;;;5107477;28;20398;-73
2022/07/05 10:19:38;;;;;;;6.35;4.32;;;;;;;;;;5107371;28;20059;-72
2022/07/05 10:22:09;;;;;;;10.30;4.55;;;;;;;;;;5107280;28;20410;-76
2022/07/05 10:24:49;;;;;;;10.85;4.82;;;;;;;;;;5106649;28;20059;-72
2022/07/05 10:27:20;;;;;;;9.85;4.65;;;;;;;;;;5106419;28;20039;-73
2022/07/05 10:29:51;;;;;;;8.68;5.15;;;;;;;;;;5105253;28;20063;-71
2022/07/05 10:32:24;;;;;;;10.00;5.18;;;;;;;;;;5087987;28;20055;-72
2022/07/05 10:34:56;;;;;;;12.68;5.10;;;;;;;;;;5106998;28;20054;-73
2022/07/05 10:37:28;;;;;;;7.55;4.50;;;;;;;;;;5107833;28;20047;-72
2022/07/05 10:40:01;;;;;;;10.45;4.93;;;;;;;;;;5107532;28;20055;-72
2022/07/05 10:42:50;;;;;;;8.75;5.03;;;;;;;;;;5107238;28;20050;-72
2022/07/05 10:45:32;;;;;;;6.80;4.20;;;;;;;;;;5106688;28;20391;-73
2022/07/05 10:48:22;;;;;;;8.98;4.55;;;;;;;;;;5106966;28;20058;-72
2022/07/05 10:51:15;;;;;;;7.15;4.32;;;;;;;;;;5107154;28;20203;-71
2022/07/05 10:54:02;;;;;;;7.40;4.75;;;;;;;;;;5106970;28;20048;-75
2022/07/05 10:56:33;;;;;;;9.57;4.53;;;;;;;;;;5106979;28;20059;-72
2022/07/05 10:59:09;;;;;;;8.27;4.50;;;;;;;;;;5106484;28;20056;-71
2022/07/05 11:01:41;;;;;;;8.60;4.68;;;;;;;;;;5107255;28;20043;-72
2022/07/05 11:04:18;;;;;;;7.00;4.75;;;;;;;;;;5106962;28;20056;-74
2022/07/05 11:06:49;;;;;;;8.40;3.97;;;;;;;;;;5088875;28;20051;-73
2022/07/05 11:09:21;;;;;;;7.25;4.13;;;;;;;;;;5106188;28;20410;-74
2022/07/05 11:11:51;;;;;;;10.88;4.30;;;;;;;;;;5106955;28;20032;-75
2022/07/05 11:14:46;;;;;;;6.95;4.72;;;;;;;;;;5106728;28;20051;-72
2022/07/05 11:17:25;;;;;;;7.85;4.75;;;;;;;;;;5106456;28;20047;-72
2022/07/05 11:20:26;;;;;;;8.27;5.15;;;;;;;;;;5105867;28;20050;-69
2022/07/05 11:23:08;;;;;;;8.65;5.28;;;;;;;;;;5106536;28;20050;-72
2022/07/05 11:25:50;;;;;;;8.18;5.68;;;;;;;;;;5106833;28;20092;-72
2022/07/05 11:28:23;;;;;;;9.18;5.38;;;;;;;;;;5105801;28;20050;-72
2022/07/05 11:30:56;;;;;;;9.00;5.85;;;;;;;;;;5105187;28;20532;-72
2022/07/05 11:33:27;;;;;;;10.50;5.60;;;;;;;;;;5106443;28;20047;-72
2022/07/05 11:35:58;;;;;;;10.98;6.30;;;;;;;;;;5106018;28;20039;-73
2022/07/05 11:38:30;;;;;;;12.40;5.78;;;;;;;;;;5106371;28;20502;-74
2022/07/05 11:41:20;;;;;;;14.68;6.60;;;;;;;;;;5105699;28;20048;-72
2022/07/05 11:43:57;;;;;;;10.48;5.65;;;;;;;;;;5088703;28;20050;-72
2022/07/05 11:46:29;;;;;;;8.25;6.07;;;;;;;;;;5110053;28;20398;-73
2022/07/05 11:49:23;;;;;;;11.30;5.97;;;;;;;;;;5109993;28;20040;-72
2022/07/05 11:51:57;;;;;;;9.73;5.25;;;;;;;;;;5110224;28;20098;-73
2022/07/05 11:54:30;;;;;;;20.05;7.43;;;;;;;;;;5110239;28;20044;-72
2022/07/05 11:57:01;;;;;;;20.33;8.48;;;;;;;;;;5109426;28;20395;-71
2022/07/05 11:59:32;;;;;;;37.83;11.07;;;;;;;;;;5109631;28;20043;-72
2022/07/05 12:02:10;;;;;;;26.60;6.72;;;;;;;;;;5110147;28;20058;-72
2022/07/05 12:04:39;;;;;;;21.23;6.40;;;;;;;;;;5109516;28;20051;-75
2022/07/05 12:07:10;;;;;;;19.98;5.95;;;;;;;;;;5109649;28;20603;-72
2022/07/05 12:12:42;;;;;;;18.83;5.45;;;;;;;;;;5110112;28;20050;-72
2022/07/05 12:15:15;;;;;;;17.27;5.68;;;;;;;;;;5092034;28;20051;-71
2022/07/05 12:17:47;;;;;;;12.77;5.60;;;;;;;;;;5092018;28;20039;-72
2022/07/05 12:20:22;;;;;;;14.68;5.50;;;;;;;;;;5109149;28;20406;-72
2022/07/05 12:22:53;;;;;;;29.27;7.45;;;;;;;;;;5109259;28;20043;-73
2022/07/05 12:25:25;;;;;;;17.90;5.93;;;;;;;;;;5108854;28;20047;-73
2022/07/05 12:27:57;;;;;;;20.42;6.20;;;;;;;;;;5108372;28;20525;-73
2022/07/05 12:30:29;;;;;;;25.80;6.28;;;;;;;;;;5109976;28;20059;-72
2022/07/05 12:33:04;;;;;;;19.00;6.15;;;;;;;;;;5090306;28;20406;-72
2022/07/05 12:35:36;;;;;;;23.70;6.65;;;;;;;;;;5108602;28;20052;-72
2022/07/05 12:38:07;;;;;;;10.93;4.93;;;;;;;;;;5109760;28;20409;-73
2022/07/05 12:40:38;;;;;;;15.38;6.28;;;;;;;;;;5108433;28;20052;-73
2022/07/05 12:43:12;;;;;;;19.42;5.78;;;;;;;;;;5109267;28;20083;-73
2022/07/05 12:45:58;;;;;;;9.50;5.18;;;;;;;;;;5108782;28;20383;-72
2022/07/05 12:48:33;;;;;;;19.15;5.72;;;;;;;;;;5109378;28;20043;-72
2022/07/05 12:51:04;;;;;;;7.75;5.50;;;;;;;;;;5108572;28;20047;-73
2022/07/05 13:00:01;;;;;;;15.80;5.63;;;;;;;;;;5108517;28;20054;-74
2022/07/05 13:02:37;;;;;;;13.18;5.55;;;;;;;;;;5108542;28;20043;-73
2022/07/05 13:05:09;;;;;;;13.07;6.60;;;;;;;;;;5109188;28;20039;-73
2022/07/05 13:07:43;;;;;;;13.23;5.30;;;;;;;;;;5108944;28;20051;-73
2022/07/05 13:10:23;;;;;;;11.15;5.53;;;;;;;;;;5108883;28;20052;-73
2022/07/05 13:12:53;;;;;;;11.98;5.60;;;;;;;;;;5108379;28;20074;-73
2022/07/05 13:15:23;;;;;;;11.98;5.70;;;;;;;;;;5108351;28;20058;-74
2022/07/05 13:17:54;;;;;;;10.18;5.53;;;;;;;;;;5090214;28;20056;-73
2022/07/05 13:20:24;;;;;;;10.95;5.60;;;;;;;;;;5108363;28;20417;-73
2022/07/05 13:22:53;;;;;;;28.55;15.73;;;;;;;;;;5108132;28;20043;-74
2022/07/05 13:25:23;;;;;;;16.23;6.40;;;;;;;;;;5108067;28;20525;-73
2022/07/05 13:27:53;;;;;;;19.00;6.45;;;;;;;;;;5108371;28;20386;-76
2022/07/05 13:30:23;;;;;;;8.80;5.07;;;;;;;;;;5108293;28;20044;-75
2022/07/05 13:32:52;;;;;;;11.98;6.13;;;;;;;;;;5107874;28;20047;-74
2022/07/05 13:35:22;;;;;;;13.27;5.82;;;;;;;;;;5108210;28;20043;-74
2022/07/05 13:37:52;;;;;;;10.07;5.90;;;;;;;;;;5107330;28;20482;-73
2022/07/05 13:40:22;;;;;;;15.02;6.50;;;;;;;;;;5107490;28;20050;-73
2022/07/05 13:42:51;;;;;;;18.02;6.28;;;;;;;;;;5108029;28;20047;-74
2022/07/05 13:45:21;;;;;;;14.85;6.20;;;;;;;;;;5108002;28;20584;-74
2022/07/05 13:47:57;;;;;;;12.68;6.40;;;;;;;;;;5107976;28;20394;-74
2022/07/05 13:50:31;;;;;;;10.98;6.65;;;;;;;;;;5107615;28;20599;-74
2022/07/05 13:53:02;;;;;;;10.30;6.22;;;;;;;;;;5108169;28;20039;-74
2022/07/05 13:55:32;;;;;;;14.63;6.35;;;;;;;;;;5107726;28;20530;-73
2022/07/05 13:58:02;;;;;;;12.25;6.70;;;;;;;;;;5088315;28;20423;-76
2022/07/05 14:00:32;;;;;;;18.65;6.40;;;;;;;;;;5107858;28;20494;-73
2022/07/05 14:03:02;;;;;;;12.45;6.20;;;;;;;;;;5107404;28;20050;-73
2022/07/05 14:05:34;;;;;;;11.25;6.22;;;;;;;;;;5087867;28;20078;-73
2022/07/05 14:08:04;;;;;;;13.40;5.43;;;;;;;;;;5106597;28;20060;-73
2022/07/05 14:10:34;;;;;;;11.52;5.70;;;;;;;;;;5107540;28;20055;-73
2022/07/05 14:13:04;;;;;;;9.32;5.28;;;;;;;;;;5107388;28;20051;-73
2022/07/05 14:15:33;;;;;;;12.23;5.28;;;;;;;;;;5107511;28;20056;-73
2022/07/05 14:18:03;;;;;;;11.18;5.50;;;;;;;;;;5107534;28;20051;-73
2022/07/05 14:20:33;;;;;;;14.82;5.60;;;;;;;;;;5107654;28;20410;-74
2022/07/05 14:23:03;;;;;;;14.13;5.45;;;;;;;;;;5107600;28;20055;-73
2022/07/05 14:25:33;;;;;;;13.68;6.07;;;;;;;;;;5107171;28;20054;-73
2022/07/05 14:28:07;;;;;;;8.57;4.90;;;;;;;;;;5106667;28;20049;-72
2022/07/05 14:30:39;;;;;;;14.48;5.55;;;;;;;;;;5107748;28;20052;-74
2022/07/05 14:33:11;;;;;;;11.68;6.35;;;;;;;;;;5107034;28;20051;-74
2022/07/05 14:35:42;;;;;;;10.73;5.53;;;;;;;;;;5107037;28;20048;-74
2022/07/05 14:38:12;;;;;;;11.88;5.80;;;;;;;;;;5107238;28;20051;-73
2022/07/05 14:40:42;;;;;;;9.93;4.90;;;;;;;;;;5088285;28;20051;-79
2022/07/05 14:43:11;;;;;;;12.38;5.20;;;;;;;;;;5088764;28;20056;-73
2022/07/05 14:45:42;;;;;;;18.25;5.50;;;;;;;;;;5106625;28;20502;-75
2022/07/05 14:48:11;;;;;;;15.93;6.13;;;;;;;;;;5106889;28;20052;-74
2022/07/05 14:50:41;;;;;;;23.92;6.28;;;;;;;;;;5107190;28;20048;-73
2022/07/05 14:53:11;;;;;;;9.25;5.20;;;;;;;;;;5107187;28;20058;-74
2022/07/05 14:55:43;;;;;;;10.38;5.45;;;;;;;;;;5106729;28;20050;-73
2022/07/05 14:58:13;;;;;;;11.88;5.30;;;;;;;;;;5106799;28;20051;-73
2022/07/05 15:00:43;;;;;;;12.75;6.35;;;;;;;;;;5088025;28;20048;-73
2022/07/05 15:03:13;;;;;;;9.00;5.38;;;;;;;;;;5107157;28;20044;-73
2022/07/05 15:05:43;;;;;;;13.40;5.68;;;;;;;;;;5107265;28;20047;-73
2022/07/05 15:08:13;;;;;;;14.38;5.43;;;;;;;;;;5107026;28;20486;-73
2022/07/05 15:10:43;;;;;;;9.27;5.20;;;;;;;;;;5106857;28;20410;-74
2022/07/05 15:13:12;;;;;;;10.63;5.25;;;;;;;;;;5106703;28;20153;-73
2022/07/05 15:15:43;;;;;;;13.57;5.50;;;;;;;;;;5088924;28;20159;-73
2022/07/05 15:18:13;;;;;;;8.10;4.95;;;;;;;;;;5108434;28;20502;-73
2022/07/05 15:20:44;;;;;;;11.95;4.75;;;;;;;;;;5091789;28;20485;-73